Latest Weather Observations for Mildura

IDN60801

Issued at 11:33 pm EST Tuesday 27 September 2016 (issued every 30 minutes, with the page automatically refreshed every 10 minutes)

About weather observations | Map of weather stations | Latest weather observations for NSW | Other Formats
Station Details ID: 076031 Name: MILDURA AIRPORT Lat: -34.24 Lon: 142.09 Height: 50.0 m
Data from the previous 72 hours. | See also: Recent months at Mildura
Date/Time
EST
Temp
°C
App
Temp
°C
Dew
Point
°C
Rel
Hum
%
Delta-T
°C
Wind Press
QNH
hPa
Press
MSL
hPa
Rain since
9am
mm
Dir  Spd
km/h
Gust
km/h
Spd
kts
Gust
kts
27/11:30pm 8.1 5.8 4.7 79 1.5 ESE 6 6 3 3 1014.0 1014.0 0.0
27/11:00pm 8.5 6.2 4.9 78 1.6 E 6 7 3 4 1014.3 1014.3 0.0
27/10:30pm 8.6 6.4 5.5 81 1.4 ESE 6 7 3 4 1014.4 1014.4 0.0
27/10:00pm 9.1 6.9 5.3 77 1.7 S 6 11 3 6 1014.7 1014.7 0.0
27/09:30pm 9.8 8.8 5.6 75 1.9 CALM 0 0 0 0 1014.7 1014.7 0.0
27/09:00pm 10.3 8.9 5.7 73 2.1 N 2 6 1 3 1014.7 1014.7 0.0
27/08:30pm 11.1 9.9 4.8 65 2.9 CALM 0 0 0 0 1014.6 1014.6 0.0
27/08:00pm 12.0 9.7 5.0 62 3.2 W 6 7 3 4 1014.6 1014.6 0.0
27/07:30pm 12.6 10.4 5.1 60 3.5 W 6 9 3 5 1014.8 1014.8 0.0
27/07:00pm 13.5 11.1 4.4 54 4.2 W 6 7 3 4 1014.7 1014.7 0.0
27/06:30pm 15.0 12.6 4.1 48 5.0 W 6 9 3 5 1014.4 1014.4 0.0
27/06:00pm 16.4 12.5 3.5 42 5.9 W 13 20 7 11 1014.2 1014.2 0.0
27/05:30pm 17.2 13.2 3.1 39 6.5 W 13 20 7 11 1014.3 1014.3 0.0
27/05:00pm 17.5 13.2 3.4 39 6.5 W 15 20 8 11 1014.2 1014.2 0.0
27/04:30pm 17.5 12.6 2.3 36 6.9 WSW 17 26 9 14 1014.2 1014.2 0.0
27/04:00pm 17.7 12.9 2.5 36 6.9 W 17 28 9 15 1014.1 1014.1 0.0
27/03:30pm 17.3 13.2 2.1 36 6.9 W 13 24 7 13 1014.1 1014.1 0.0
27/03:00pm 17.6 12.7 4.2 41 6.3 W 19 30 10 16 1014.1 1014.1 0.0
27/02:30pm 17.2 12.4 2.8 38 6.6 W 17 26 9 14 1014.3 1014.3 0.0
27/02:00pm 16.8 12.4 2.8 39 6.4 WSW 15 22 8 12 1014.6 1014.6 0.0
27/01:30pm 16.6 12.2 2.6 39 6.4 W 15 26 8 14 1015.0 1015.0 0.0
27/01:00pm 16.3 12.0 3.4 42 5.9 WSW 15 24 8 13 1015.3 1015.3 0.0
27/12:30pm 16.1 11.7 2.9 41 6.0 W 15 28 8 15 1015.7 1015.7 0.0
27/12:00pm 15.3 12.1 5.2 51 4.8 W 11 17 6 9 1016.1 1016.1 0.0
27/11:30am 15.3 10.8 4.4 48 5.1 W 17 24 9 13 1016.3 1016.3 0.0
27/11:00am 14.2 10.4 5.6 56 4.1 WSW 15 22 8 12 1016.8 1016.8 0.0
27/10:30am 14.1 10.4 6.5 60 3.7 W 15 26 8 14 1016.7 1016.7 0.0
27/10:00am 13.8 10.5 6.4 61 3.6 SW 13 19 7 10 1016.8 1016.8 0.0
27/09:30am 12.8 9.5 6.6 66 3.0 W 13 19 7 10 1016.8 1016.8 0.0
27/09:00am 12.0 9.0 7.5 74 2.2 W 13 22 7 12 1016.7 1016.7 0.0
27/08:30am 10.9 7.8 7.2 78 1.8 W 13 19 7 10 1016.7 1016.7 0.0
27/08:00am 9.6 5.5 6.3 80 1.5 W 17 24 9 13 1016.5 1016.5 0.0
27/07:30am 8.5 4.7 6.0 84 1.1 WNW 15 20 8 11 1016.1 1016.1 0.0
27/07:00am 7.4 4.3 5.5 88 0.8 WNW 11 15 6 8 1015.5 1015.5 0.0
27/06:30am 6.2 2.9 4.8 91 0.6 WNW 11 15 6 8 1015.3 1015.3 0.0
27/06:00am 6.0 2.7 4.5 90 0.6 WNW 11 15 6 8 1014.9 1014.9 0.0
27/05:30am 5.8 2.9 4.4 91 0.6 WNW 9 13 5 7 1014.5 1014.5 0.0
27/05:00am 5.4 2.4 4.1 91 0.6 WNW 9 13 5 7 1014.1 1014.1 0.0
27/04:30am 5.4 1.9 3.7 89 0.7 WNW 11 17 6 9 1014.0 1014.0 0.0
27/04:00am 5.3 2.3 4.0 91 0.5 W 9 13 5 7 1013.6 1013.6 0.0
27/03:30am 5.7 2.7 4.0 89 0.7 WNW 9 13 5 7 1013.6 1013.6 0.0
27/03:00am 6.0 3.0 4.3 89 0.7 W 9 13 5 7 1013.8 1013.8 0.0
27/02:30am 6.3 3.4 4.5 88 0.8 W 9 13 5 7 1013.9 1013.9 0.0
27/02:00am 6.4 3.5 4.7 89 0.7 W 9 13 5 7 1014.0 1014.0 0.0
27/01:30am 6.5 3.9 4.3 86 0.9 W 7 9 4 5 1014.2 1014.2 0.0
27/01:00am 7.0 4.1 4.5 84 1.1 WSW 9 11 5 6 1014.3 1014.3 0.0
27/12:30am 7.5 5.0 4.8 83 1.2 W 7 9 4 5 1014.3 1014.3 0.0
27/12:00am 8.6 6.2 5.2 79 1.5 W 7 9 4 5 1014.1 1014.1 0.0
 
Date/Time
EST
Temp
°C
App
Temp
°C
Dew
Point
°C
Rel
Hum
%
Delta-T
°C
Wind Press
QNH
hPa
Press
MSL
hPa
Rain since
9am
mm
Dir  Spd
km/h
Gust
km/h
Spd
kts
Gust
kts
26/11:30pm 10.4 7.6 5.2 70 2.4 WSW 9 13 5 7 1014.1 1014.1 0.0
26/11:00pm 11.5 8.5 6.2 70 2.5 WSW 11 19 6 10 1014.0 1014.0 0.0
26/10:30pm 11.9 9.7 7.8 76 2.0 W 9 20 5 11 1013.9 1013.9 0.0
26/10:00pm 12.8 10.2 7.9 72 2.4 SW 11 19 6 10 1013.7 1013.7 0.0
26/09:30pm 13.8 11.3 8.2 69 2.8 SW 11 15 6 8 1013.3 1013.3 0.0
26/09:00pm 14.7 11.4 8.0 64 3.4 SW 15 22 8 12 1012.9 1012.9 0.0
26/08:30pm 15.4 11.1 7.9 61 3.8 SW 20 35 11 19 1012.6 1012.6 0.0
26/08:00pm 16.4 12.3 6.0 50 5.1 WSW 17 30 9 16 1011.5 1011.5 0.0
26/07:30pm 16.7 12.9 5.6 48 5.4 SW 15 22 8 12 1010.7 1010.7 0.0
26/07:00pm 17.5 12.8 5.1 44 6.0 WSW 19 28 10 15 1010.2 1010.2 0.0
26/06:30pm 18.1 15.4 3.9 39 6.7 WNW 7 11 4 6 1009.6 1009.6 0.0
26/06:00pm 18.7 14.9 3.7 37 7.1 WNW 13 20 7 11 1009.5 1009.5 0.0
26/05:30pm 19.0 15.1 3.6 36 7.3 NW 13 20 7 11 1009.4 1009.4 0.0
26/05:00pm 20.0 15.5 2.4 31 8.2 NW 15 24 8 13 1009.2 1009.2 0.0
26/04:30pm 20.2 15.4 2.5 31 8.2 NW 17 24 9 13 1009.3 1009.3 0.0
26/04:00pm 20.3 15.4 2.2 30 8.4 NNW 17 24 9 13 1009.6 1009.6 0.0
26/03:30pm 20.1 15.3 2.5 31 8.2 NNW 17 28 9 15 1010.1 1010.1 0.0
26/03:00pm 20.3 15.6 3.1 32 8.1 NW 17 24 9 13 1010.5 1010.5 0.0
26/02:30pm 20.6 15.4 3.3 32 8.2 NW 20 35 11 19 1010.9 1010.9 0.0
26/02:00pm 20.6 15.4 3.3 32 8.2 NW 20 33 11 18 1011.4 1011.4 0.0
26/01:30pm 19.9 14.7 2.7 32 8.0 NNW 19 32 10 17 1011.7 1011.7 0.0
26/01:00pm 19.6 14.8 2.5 32 7.9 NW 17 28 9 15 1012.3 1012.3 0.0
26/12:30pm 19.0 13.7 3.2 35 7.4 NW 20 32 11 17 1012.8 1012.8 0.0
26/12:00pm 18.6 13.8 2.4 34 7.4 NNW 17 30 9 16 1013.2 1013.2 0.0
26/11:30am 18.3 12.6 2.6 35 7.2 NW 22 35 12 19 1013.6 1013.6 0.0
26/11:00am 17.7 12.3 2.5 36 6.9 NNW 20 33 11 18 1013.9 1013.9 0.0
26/10:30am 17.6 12.4 3.5 39 6.6 NW 20 32 11 17 1014.4 1014.4 0.0
26/10:00am 16.9 12.3 3.6 41 6.2 NNW 17 28 9 15 1014.6 1014.6 0.0
26/09:30am 16.3 11.8 4.4 45 5.6 N 17 22 9 12 1014.7 1014.7 0.0
26/09:00am 15.7 12.7 5.9 52 4.7 NNW 11 17 6 9 1014.6 1014.6 0.0
26/08:30am 13.8 11.4 7.1 64 3.3 N 9 13 5 7 1014.6 1014.6 0.0
26/08:00am 11.9 10.2 7.6 75 2.1 NNE 6 9 3 5 1014.4 1014.4 0.0
26/07:30am 10.3 8.1 7.9 85 1.2 NNE 9 11 5 6 1014.2 1014.2 0.0
26/07:00am 8.3 6.1 6.4 88 0.9 NE 7 7 4 4 1014.3 1014.3 0.0
26/06:30am 6.6 4.5 5.7 94 0.4 NE 6 9 3 5 1014.3 1014.3 0.0
26/06:00am 6.6 4.4 5.2 91 0.6 NNE 6 6 3 3 1014.5 1014.5 0.0
26/05:30am 6.8 5.4 5.3 90 0.7 N 2 7 1 4 1014.4 1014.4 0.0
26/05:00am 7.8 5.5 5.9 88 0.9 NW 7 7 4 4 1014.4 1014.4 0.0
26/04:30am 8.3 5.7 5.9 85 1.1 WNW 9 11 5 6 1014.5 1014.5 0.0
26/04:00am 9.1 7.0 6.5 84 1.2 NW 7 9 4 5 1014.6 1014.6 0.0
26/03:30am 9.7 7.7 7.1 84 1.2 WNW 7 9 4 5 1014.7 1014.7 0.0
26/03:00am 9.4 6.9 6.7 83 1.3 NW 9 11 5 6 1014.8 1014.8 0.0
26/02:30am 10.5 8.1 7.0 79 1.7 NW 9 11 5 6 1014.9 1014.9 0.0
26/02:00am 10.6 8.7 6.6 76 1.9 NW 6 7 3 4 1015.0 1015.0 0.0
26/01:30am 10.7 8.5 6.3 74 2.1 NNW 7 9 4 5 1015.3 1015.3 0.0
26/01:00am 10.4 8.9 6.7 78 1.7 NNW 4 9 2 5 1015.5 1015.5 0.0
26/12:30am 10.8 8.8 6.4 74 2.1 WNW 6 6 3 3 1015.5 1015.5 0.0
26/12:00am 10.5 9.0 6.8 78 1.7 WSW 4 7 2 4 1015.7 1015.7 0.0
 
Date/Time
EST
Temp
°C
App
Temp
°C
Dew
Point
°C
Rel
Hum
%
Delta-T
°C
Wind Press
QNH
hPa
Press
MSL
hPa
Rain since
9am
mm
Dir  Spd
km/h
Gust
km/h
Spd
kts
Gust
kts
25/11:30pm 10.9 8.8 6.8 76 1.9 W 7 9 4 5 1015.8 1015.8 0.0
25/11:00pm 11.2 8.3 6.5 73 2.2 NW 11 15 6 8 1015.9 1015.9 0.0
25/10:30pm 10.9 9.0 6.5 74 2.1 SW 6 7 3 4 1015.8 1015.8 0.0
25/10:00pm 11.3 9.2 6.0 70 2.5 SW 6 7 3 4 1015.8 1015.8 0.0
25/09:30pm 11.3 9.1 6.2 71 2.4 WSW 7 13 4 7 1015.7 1015.7 0.0
25/09:00pm 10.9 9.0 6.6 75 2.0 SW 6 7 3 4 1015.6 1015.6 0.0
25/08:30pm 11.5 9.4 6.0 69 2.6 WNW 6 7 3 4 1015.5 1015.5 0.0
25/08:00pm 12.1 9.7 6.8 70 2.5 WNW 9 13 5 7 1015.2 1015.2 0.0
25/07:30pm 12.8 10.8 7.0 68 2.8 WNW 7 9 4 5 1014.8 1014.8 0.0
25/07:00pm 13.0 11.1 6.8 66 3.0 W 6 7 3 4 1014.3 1014.3 0.0
25/06:30pm 13.3 11.0 5.9 61 3.5 W 7 11 4 6 1014.0 1014.0 0.0
25/06:00pm 14.7 12.0 5.8 55 4.3 W 9 15 5 8 1013.7 1013.7 0.0
25/05:30pm 15.9 12.6 4.6 47 5.3 W 11 13 6 7 1013.7 1013.7 0.0
25/05:00pm 16.5 13.5 4.2 44 5.8 WSW 9 19 5 10 1013.4 1013.4 0.0
25/04:30pm 15.4 11.8 5.0 50 4.9 W 13 20 7 11 1013.4 1013.4 0.0
25/04:00pm 16.1 11.7 4.5 46 5.5 W 17 24 9 13 1013.2 1013.2 0.0
25/03:30pm 17.1 13.6 5.4 46 5.6 WNW 13 28 7 15 1013.4 1013.4 0.0
25/03:00pm 16.2 13.2 3.9 44 5.7 W 9 17 5 9 1013.0 1013.0 0.0
25/02:30pm 15.3 11.3 4.7 49 5.0 SW 15 24 8 13 1013.4 1013.4 0.0
25/02:00pm 15.7 11.6 4.1 46 5.4 SW 15 28 8 15 1013.7 1013.7 0.0
25/01:30pm 16.0 12.2 5.6 50 5.0 WSW 15 26 8 14 1014.2 1014.2 0.0
25/01:00pm 15.3 10.6 3.1 44 5.5 SW 17 24 9 13 1014.5 1014.5 0.0
25/12:30pm 14.2 10.4 5.8 57 4.0 SW 15 20 8 11 1014.9 1014.9 0.0
25/12:00pm 14.1 10.0 6.2 59 3.8 SW 17 28 9 15 1015.4 1015.4 0.0
25/11:30am 14.0 9.7 5.1 55 4.2 SW 17 24 9 13 1015.7 1015.7 0.0
25/11:00am 13.8 9.9 5.2 56 4.0 SW 15 24 8 13 1015.9 1015.9 0.0
25/10:30am 14.1 9.9 5.5 56 4.1 SSW 17 26 9 14 1015.9 1015.9 0.0
25/10:00am 13.1 8.7 4.8 57 3.8 SSW 17 28 9 15 1015.8 1015.8 0.0
25/09:30am 12.2 8.3 7.1 71 2.5 SW 17 24 9 13 1015.8 1015.8 0.0
25/09:00am 11.7 7.8 7.0 73 2.2 SW 17 26 9 14 1015.6 1015.6 2.8
25/08:30am 10.4 6.9 7.1 80 1.6 SW 15 26 8 14 1015.2 1015.2 2.8
25/08:00am 9.2 6.0 6.8 85 1.1 SW 13 22 7 12 1014.8 1014.8 2.8
25/07:30am 7.9 5.0 6.7 92 0.6 WSW 11 19 6 10 1014.4 1014.4 2.8
25/07:00am 6.7 3.4 6.4 98 0.1 WSW 13 17 7 9 1014.1 1014.1 2.8
25/06:30am 5.9 2.9 5.8 99 0.0 WSW 11 17 6 9 1013.7 1013.7 2.8
25/06:00am 5.5 2.8 5.4 99 0.0 W 9 13 5 7 1013.2 1013.2 2.8
25/05:30am 6.1 3.5 6.0 99 0.0 WSW 9 13 5 7 1012.5 1012.5 2.8
25/05:00am 6.6 4.1 6.5 99 0.0 WSW 9 13 5 7 1012.1 1012.1 2.6
25/04:30am 7.2 4.8 7.1 99 0.0 WSW 9 13 5 7 1011.7 1011.7 2.6
25/04:00am 7.8 5.5 7.5 98 0.1 WSW 9 13 5 7 1011.6 1011.6 2.6
25/03:30am 8.3 5.8 8.0 98 0.1 SW 11 17 6 9 1011.4 1011.4 2.6
25/03:00am 8.8 6.0 8.4 97 0.2 SW 13 17 7 9 1011.1 1011.1 2.6
25/02:30am 9.1 6.3 8.6 97 0.2 SW 13 20 7 11 1010.9 1010.9 2.6
25/02:00am 9.5 6.8 8.9 96 0.3 SW 13 17 7 9 1010.8 1010.8 2.6
25/01:30am 9.9 7.2 9.1 95 0.4 SW 13 20 7 11 1010.8 1010.8 2.6
25/01:00am 10.3 7.4 9.7 96 0.3 SW 15 20 8 11 1010.7 1010.7 2.6
25/12:30am 10.9 8.6 10.6 98 0.2 WSW 13 20 7 11 1010.7 1010.7 2.6
25/12:00am 10.9 8.9 10.3 96 0.3 WSW 11 17 6 9 1010.4 1010.4 2.6

Other Formats:

Comma delimited format used in spreadsheet applications
http://www.bom.gov.au/fwo/IDN60801/IDN60801.94693.axf

JavaScript Object Notation format (JSON) in row-major order
http://www.bom.gov.au/fwo/IDN60801/IDN60801.94693.json